sensor_id;sensor_type;location;lat;lon;timestamp;P1;durP1;ratioP1;P2;durP2;ratioP2
17201;SDS011;8717;53.588;10.176;2022-08-21T00:00:03;4.07;;;2.57;;
17201;SDS011;8717;53.588;10.176;2022-08-21T00:02:43;5.20;;;2.50;;
17201;SDS011;8717;53.588;10.176;2022-08-21T00:05:11;4.07;;;2.50;;
17201;SDS011;8717;53.588;10.176;2022-08-21T00:07:38;3.40;;;2.57;;
17201;SDS011;8717;53.588;10.176;2022-08-21T00:10:07;7.00;;;3.23;;
17201;SDS011;8717;53.588;10.176;2022-08-21T00:12:36;5.83;;;2.87;;
17201;SDS011;8717;53.588;10.176;2022-08-21T00:15:03;4.97;;;2.53;;
17201;SDS011;8717;53.588;10.176;2022-08-21T00:17:31;4.23;;;2.60;;
17201;SDS011;8717;53.588;10.176;2022-08-21T00:19:58;5.47;;;2.87;;
17201;SDS011;8717;53.588;10.176;2022-08-21T00:22:26;4.83;;;2.60;;
17201;SDS011;8717;53.588;10.176;2022-08-21T00:24:53;7.00;;;2.70;;
17201;SDS011;8717;53.588;10.176;2022-08-21T00:27:21;4.93;;;2.53;;
17201;SDS011;8717;53.588;10.176;2022-08-21T00:29:48;3.30;;;2.20;;
17201;SDS011;8717;53.588;10.176;2022-08-21T00:32:19;4.80;;;2.37;;
17201;SDS011;8717;53.588;10.176;2022-08-21T00:34:46;5.87;;;2.60;;
17201;SDS011;8717;53.588;10.176;2022-08-21T00:37:13;4.40;;;3.07;;
17201;SDS011;8717;53.588;10.176;2022-08-21T00:39:39;6.13;;;3.17;;
17201;SDS011;8717;53.588;10.176;2022-08-21T00:42:06;6.47;;;2.70;;
17201;SDS011;8717;53.588;10.176;2022-08-21T00:44:34;3.00;;;2.30;;
17201;SDS011;8717;53.588;10.176;2022-08-21T00:47:01;6.53;;;2.53;;
17201;SDS011;8717;53.588;10.176;2022-08-21T00:49:28;6.33;;;2.57;;
17201;SDS011;8717;53.588;10.176;2022-08-21T00:51:55;5.17;;;3.10;;
17201;SDS011;8717;53.588;10.176;2022-08-21T00:54:24;4.03;;;2.40;;
17201;SDS011;8717;53.588;10.176;2022-08-21T00:56:54;4.03;;;2.60;;
17201;SDS011;8717;53.588;10.176;2022-08-21T00:59:24;6.17;;;3.00;;
17201;SDS011;8717;53.588;10.176;2022-08-21T01:01:53;9.73;;;2.50;;
17201;SDS011;8717;53.588;10.176;2022-08-21T01:04:20;6.07;;;2.97;;
17201;SDS011;8717;53.588;10.176;2022-08-21T01:06:48;7.40;;;2.77;;
17201;SDS011;8717;53.588;10.176;2022-08-21T01:09:17;2.97;;;2.27;;
17201;SDS011;8717;53.588;10.176;2022-08-21T01:11:44;3.63;;;2.23;;
17201;SDS011;8717;53.588;10.176;2022-08-21T01:14:11;4.07;;;2.83;;
17201;SDS011;8717;53.588;10.176;2022-08-21T01:16:39;4.80;;;2.70;;
17201;SDS011;8717;53.588;10.176;2022-08-21T01:19:10;4.63;;;2.70;;
17201;SDS011;8717;53.588;10.176;2022-08-21T01:21:40;3.63;;;2.40;;
17201;SDS011;8717;53.588;10.176;2022-08-21T01:24:07;5.87;;;3.20;;
17201;SDS011;8717;53.588;10.176;2022-08-21T01:26:34;4.30;;;2.70;;
17201;SDS011;8717;53.588;10.176;2022-08-21T01:29:03;3.77;;;2.20;;
17201;SDS011;8717;53.588;10.176;2022-08-21T01:31:35;6.67;;;2.80;;
17201;SDS011;8717;53.588;10.176;2022-08-21T01:34:02;4.03;;;2.70;;
17201;SDS011;8717;53.588;10.176;2022-08-21T01:36:30;4.97;;;3.03;;
17201;SDS011;8717;53.588;10.176;2022-08-21T01:38:59;3.67;;;2.70;;
17201;SDS011;8717;53.588;10.176;2022-08-21T01:41:25;4.03;;;2.30;;
17201;SDS011;8717;53.588;10.176;2022-08-21T01:43:52;5.13;;;2.83;;
17201;SDS011;8717;53.588;10.176;2022-08-21T01:46:19;6.43;;;3.37;;
17201;SDS011;8717;53.588;10.176;2022-08-21T01:48:46;4.10;;;3.00;;
17201;SDS011;8717;53.588;10.176;2022-08-21T01:51:13;6.63;;;2.70;;
17201;SDS011;8717;53.588;10.176;2022-08-21T01:53:40;5.30;;;2.87;;
17201;SDS011;8717;53.588;10.176;2022-08-21T01:56:10;3.60;;;2.77;;
17201;SDS011;8717;53.588;10.176;2022-08-21T01:58:38;4.87;;;2.97;;
17201;SDS011;8717;53.588;10.176;2022-08-21T02:01:07;5.97;;;3.63;;
17201;SDS011;8717;53.588;10.176;2022-08-21T02:03:34;7.33;;;3.83;;
17201;SDS011;8717;53.588;10.176;2022-08-21T02:06:02;5.30;;;3.00;;
17201;SDS011;8717;53.588;10.176;2022-08-21T02:08:29;5.33;;;2.87;;
17201;SDS011;8717;53.588;10.176;2022-08-21T02:10:56;4.37;;;3.33;;
17201;SDS011;8717;53.588;10.176;2022-08-21T02:13:24;8.33;;;3.77;;
17201;SDS011;8717;53.588;10.176;2022-08-21T02:15:51;5.80;;;3.50;;
17201;SDS011;8717;53.588;10.176;2022-08-21T02:18:17;6.63;;;3.80;;
17201;SDS011;8717;53.588;10.176;2022-08-21T02:20:46;5.30;;;3.67;;
17201;SDS011;8717;53.588;10.176;2022-08-21T02:23:15;4.70;;;3.10;;
17201;SDS011;8717;53.588;10.176;2022-08-21T02:25:41;8.13;;;3.87;;
17201;SDS011;8717;53.588;10.176;2022-08-21T02:28:10;6.60;;;3.83;;
17201;SDS011;8717;53.588;10.176;2022-08-21T02:30:41;6.83;;;3.73;;
17201;SDS011;8717;53.588;10.176;2022-08-21T02:33:09;5.83;;;3.33;;
17201;SDS011;8717;53.588;10.176;2022-08-21T02:35:37;5.87;;;3.93;;
17201;SDS011;8717;53.588;10.176;2022-08-21T02:38:05;7.00;;;4.33;;
17201;SDS011;8717;53.588;10.176;2022-08-21T02:40:34;5.53;;;3.67;;
17201;SDS011;8717;53.588;10.176;2022-08-21T02:43:03;6.63;;;4.33;;
17201;SDS011;8717;53.588;10.176;2022-08-21T02:45:31;6.30;;;4.17;;
17201;SDS011;8717;53.588;10.176;2022-08-21T02:48:00;6.90;;;3.90;;
17201;SDS011;8717;53.588;10.176;2022-08-21T02:50:30;7.37;;;3.23;;
17201;SDS011;8717;53.588;10.176;2022-08-21T02:52:58;7.70;;;3.40;;
17201;SDS011;8717;53.588;10.176;2022-08-21T02:55:26;7.33;;;3.67;;
17201;SDS011;8717;53.588;10.176;2022-08-21T02:57:54;6.10;;;3.57;;
17201;SDS011;8717;53.588;10.176;2022-08-21T03:00:23;4.73;;;3.50;;
17201;SDS011;8717;53.588;10.176;2022-08-21T03:02:52;5.87;;;3.53;;
17201;SDS011;8717;53.588;10.176;2022-08-21T03:05:22;3.80;;;3.00;;
17201;SDS011;8717;53.588;10.176;2022-08-21T03:07:50;4.57;;;3.27;;
17201;SDS011;8717;53.588;10.176;2022-08-21T03:10:17;8.83;;;4.07;;
17201;SDS011;8717;53.588;10.176;2022-08-21T03:12:45;7.53;;;4.30;;
17201;SDS011;8717;53.588;10.176;2022-08-21T03:15:13;6.67;;;3.93;;
17201;SDS011;8717;53.588;10.176;2022-08-21T03:17:43;5.87;;;3.30;;
17201;SDS011;8717;53.588;10.176;2022-08-21T03:20:11;8.10;;;3.90;;
17201;SDS011;8717;53.588;10.176;2022-08-21T03:22:40;5.47;;;3.70;;
17201;SDS011;8717;53.588;10.176;2022-08-21T03:25:08;5.70;;;3.73;;
17201;SDS011;8717;53.588;10.176;2022-08-21T03:27:35;4.77;;;3.60;;
17201;SDS011;8717;53.588;10.176;2022-08-21T03:30:03;5.93;;;3.63;;
17201;SDS011;8717;53.588;10.176;2022-08-21T03:32:31;4.93;;;3.50;;
17201;SDS011;8717;53.588;10.176;2022-08-21T03:34:58;7.43;;;3.83;;
17201;SDS011;8717;53.588;10.176;2022-08-21T03:37:26;5.27;;;3.20;;
17201;SDS011;8717;53.588;10.176;2022-08-21T03:39:55;5.20;;;3.37;;
17201;SDS011;8717;53.588;10.176;2022-08-21T03:42:22;5.47;;;3.50;;
17201;SDS011;8717;53.588;10.176;2022-08-21T03:44:48;7.57;;;3.20;;
17201;SDS011;8717;53.588;10.176;2022-08-21T03:47:15;5.63;;;3.67;;
17201;SDS011;8717;53.588;10.176;2022-08-21T03:49:42;5.63;;;3.60;;
17201;SDS011;8717;53.588;10.176;2022-08-21T03:52:09;5.97;;;3.57;;
17201;SDS011;8717;53.588;10.176;2022-08-21T03:54:35;6.20;;;3.87;;
17201;SDS011;8717;53.588;10.176;2022-08-21T03:57:03;6.17;;;3.57;;
17201;SDS011;8717;53.588;10.176;2022-08-21T03:59:30;4.83;;;3.60;;
17201;SDS011;8717;53.588;10.176;2022-08-21T04:01:59;5.33;;;3.83;;
17201;SDS011;8717;53.588;10.176;2022-08-21T04:04:28;4.97;;;3.10;;
17201;SDS011;8717;53.588;10.176;2022-08-21T04:06:57;6.67;;;3.30;;
17201;SDS011;8717;53.588;10.176;2022-08-21T04:09:24;4.33;;;3.53;;
17201;SDS011;8717;53.588;10.176;2022-08-21T04:11:52;5.77;;;3.27;;
17201;SDS011;8717;53.588;10.176;2022-08-21T04:14:21;4.30;;;3.13;;
17201;SDS011;8717;53.588;10.176;2022-08-21T04:16:48;4.43;;;3.30;;
17201;SDS011;8717;53.588;10.176;2022-08-21T04:19:15;5.90;;;3.60;;
17201;SDS011;8717;53.588;10.176;2022-08-21T04:21:41;5.40;;;4.07;;
17201;SDS011;8717;53.588;10.176;2022-08-21T04:24:09;8.07;;;4.70;;
17201;SDS011;8717;53.588;10.176;2022-08-21T04:26:36;6.13;;;4.27;;
17201;SDS011;8717;53.588;10.176;2022-08-21T04:29:04;5.60;;;3.63;;
17201;SDS011;8717;53.588;10.176;2022-08-21T04:31:33;5.50;;;4.00;;
17201;SDS011;8717;53.588;10.176;2022-08-21T04:34:01;6.47;;;4.20;;
17201;SDS011;8717;53.588;10.176;2022-08-21T04:36:29;5.23;;;3.70;;
17201;SDS011;8717;53.588;10.176;2022-08-21T04:38:56;5.50;;;3.60;;
17201;SDS011;8717;53.588;10.176;2022-08-21T04:41:23;5.60;;;3.60;;
17201;SDS011;8717;53.588;10.176;2022-08-21T04:43:50;5.67;;;3.80;;
17201;SDS011;8717;53.588;10.176;2022-08-21T04:46:17;4.17;;;3.37;;
17201;SDS011;8717;53.588;10.176;2022-08-21T04:48:46;6.00;;;3.57;;
17201;SDS011;8717;53.588;10.176;2022-08-21T04:51:15;5.67;;;3.30;;
17201;SDS011;8717;53.588;10.176;2022-08-21T04:53:47;4.77;;;3.30;;
17201;SDS011;8717;53.588;10.176;2022-08-21T04:56:18;5.53;;;3.23;;
17201;SDS011;8717;53.588;10.176;2022-08-21T04:58:48;5.03;;;3.40;;
17201;SDS011;8717;53.588;10.176;2022-08-21T05:01:17;5.50;;;3.17;;
17201;SDS011;8717;53.588;10.176;2022-08-21T05:03:48;4.70;;;3.63;;
17201;SDS011;8717;53.588;10.176;2022-08-21T05:06:18;5.57;;;3.70;;
17201;SDS011;8717;53.588;10.176;2022-08-21T05:08:47;5.20;;;3.10;;
17201;SDS011;8717;53.588;10.176;2022-08-21T05:11:16;5.33;;;4.00;;
17201;SDS011;8717;53.588;10.176;2022-08-21T05:13:43;5.57;;;3.60;;
17201;SDS011;8717;53.588;10.176;2022-08-21T05:16:10;6.27;;;3.97;;
17201;SDS011;8717;53.588;10.176;2022-08-21T05:18:37;6.37;;;3.83;;
17201;SDS011;8717;53.588;10.176;2022-08-21T05:21:05;4.03;;;3.40;;
17201;SDS011;8717;53.588;10.176;2022-08-21T05:23:31;5.33;;;3.60;;
17201;SDS011;8717;53.588;10.176;2022-08-21T05:25:58;7.40;;;3.57;;
17201;SDS011;8717;53.588;10.176;2022-08-21T05:28:26;5.47;;;3.90;;
17201;SDS011;8717;53.588;10.176;2022-08-21T05:30:53;5.33;;;4.00;;
17201;SDS011;8717;53.588;10.176;2022-08-21T05:33:20;6.97;;;4.20;;
17201;SDS011;8717;53.588;10.176;2022-08-21T05:35:49;5.13;;;3.60;;
17201;SDS011;8717;53.588;10.176;2022-08-21T05:38:18;6.03;;;3.80;;
17201;SDS011;8717;53.588;10.176;2022-08-21T05:40:45;5.07;;;3.40;;
17201;SDS011;8717;53.588;10.176;2022-08-21T05:43:12;6.73;;;3.63;;
17201;SDS011;8717;53.588;10.176;2022-08-21T05:45:39;7.23;;;3.90;;
17201;SDS011;8717;53.588;10.176;2022-08-21T05:48:06;5.07;;;3.23;;
17201;SDS011;8717;53.588;10.176;2022-08-21T05:50:34;5.53;;;3.83;;
17201;SDS011;8717;53.588;10.176;2022-08-21T05:53:02;6.03;;;3.50;;
17201;SDS011;8717;53.588;10.176;2022-08-21T05:55:30;7.37;;;3.70;;
17201;SDS011;8717;53.588;10.176;2022-08-21T05:57:57;7.27;;;3.60;;
17201;SDS011;8717;53.588;10.176;2022-08-21T06:00:24;5.53;;;3.77;;
17201;SDS011;8717;53.588;10.176;2022-08-21T06:02:51;8.83;;;3.93;;
17201;SDS011;8717;53.588;10.176;2022-08-21T06:05:18;5.17;;;3.60;;
17201;SDS011;8717;53.588;10.176;2022-08-21T06:07:44;7.53;;;3.33;;
17201;SDS011;8717;53.588;10.176;2022-08-21T06:10:11;5.40;;;3.73;;
17201;SDS011;8717;53.588;10.176;2022-08-21T06:12:39;7.10;;;3.70;;
17201;SDS011;8717;53.588;10.176;2022-08-21T06:15:06;5.60;;;3.80;;
17201;SDS011;8717;53.588;10.176;2022-08-21T06:17:34;7.63;;;3.43;;
17201;SDS011;8717;53.588;10.176;2022-08-21T06:20:00;6.20;;;3.60;;
17201;SDS011;8717;53.588;10.176;2022-08-21T06:22:27;6.43;;;3.50;;
17201;SDS011;8717;53.588;10.176;2022-08-21T06:24:54;7.40;;;3.63;;
17201;SDS011;8717;53.588;10.176;2022-08-21T06:27:21;8.13;;;3.40;;
17201;SDS011;8717;53.588;10.176;2022-08-21T06:29:49;5.57;;;3.50;;
17201;SDS011;8717;53.588;10.176;2022-08-21T06:32:16;5.03;;;3.20;;
17201;SDS011;8717;53.588;10.176;2022-08-21T06:34:43;3.83;;;3.13;;
17201;SDS011;8717;53.588;10.176;2022-08-21T06:37:09;5.80;;;3.20;;
17201;SDS011;8717;53.588;10.176;2022-08-21T06:39:36;5.30;;;3.30;;
17201;SDS011;8717;53.588;10.176;2022-08-21T06:42:03;7.60;;;3.33;;
17201;SDS011;8717;53.588;10.176;2022-08-21T06:44:31;6.20;;;3.17;;
17201;SDS011;8717;53.588;10.176;2022-08-21T06:46:59;4.93;;;3.20;;
17201;SDS011;8717;53.588;10.176;2022-08-21T06:49:27;5.73;;;3.20;;
17201;SDS011;8717;53.588;10.176;2022-08-21T06:51:56;8.00;;;3.13;;
17201;SDS011;8717;53.588;10.176;2022-08-21T06:54:22;5.67;;;2.97;;
17201;SDS011;8717;53.588;10.176;2022-08-21T06:56:49;5.07;;;2.70;;
17201;SDS011;8717;53.588;10.176;2022-08-21T06:59:16;6.37;;;2.80;;
17201;SDS011;8717;53.588;10.176;2022-08-21T07:01:42;5.17;;;2.70;;
17201;SDS011;8717;53.588;10.176;2022-08-21T07:04:11;4.07;;;2.87;;
17201;SDS011;8717;53.588;10.176;2022-08-21T07:06:38;4.13;;;2.43;;
17201;SDS011;8717;53.588;10.176;2022-08-21T07:09:04;13.97;;;2.83;;
17201;SDS011;8717;53.588;10.176;2022-08-21T07:11:31;4.70;;;2.33;;
17201;SDS011;8717;53.588;10.176;2022-08-21T07:13:58;4.20;;;2.37;;
17201;SDS011;8717;53.588;10.176;2022-08-21T07:16:24;4.37;;;2.03;;
17201;SDS011;8717;53.588;10.176;2022-08-21T07:18:51;3.87;;;1.90;;
17201;SDS011;8717;53.588;10.176;2022-08-21T07:21:19;5.87;;;2.40;;
17201;SDS011;8717;53.588;10.176;2022-08-21T07:23:47;4.83;;;2.20;;
17201;SDS011;8717;53.588;10.176;2022-08-21T07:26:17;6.00;;;2.27;;
17201;SDS011;8717;53.588;10.176;2022-08-21T07:28:45;3.37;;;1.63;;
17201;SDS011;8717;53.588;10.176;2022-08-21T07:31:13;5.10;;;2.03;;
17201;SDS011;8717;53.588;10.176;2022-08-21T07:33:41;2.37;;;1.60;;
17201;SDS011;8717;53.588;10.176;2022-08-21T07:36:08;3.30;;;1.90;;
17201;SDS011;8717;53.588;10.176;2022-08-21T07:38:38;4.03;;;1.60;;
17201;SDS011;8717;53.588;10.176;2022-08-21T07:41:07;3.42;;;1.88;;
17201;SDS011;8717;53.588;10.176;2022-08-21T07:43:41;6.30;;;1.60;;
17201;SDS011;8717;53.588;10.176;2022-08-21T07:46:07;4.45;;;2.00;;
17201;SDS011;8717;53.588;10.176;2022-08-21T07:48:34;2.67;;;1.50;;
17201;SDS011;8717;53.588;10.176;2022-08-21T07:51:02;3.03;;;1.30;;
17201;SDS011;8717;53.588;10.176;2022-08-21T07:53:32;4.85;;;1.80;;
17201;SDS011;8717;53.588;10.176;2022-08-21T07:56:00;5.72;;;2.00;;
17201;SDS011;8717;53.588;10.176;2022-08-21T07:58:27;3.83;;;1.70;;
17201;SDS011;8717;53.588;10.176;2022-08-21T08:00:54;3.90;;;1.45;;
17201;SDS011;8717;53.588;10.176;2022-08-21T08:03:20;3.08;;;1.38;;
17201;SDS011;8717;53.588;10.176;2022-08-21T08:05:47;4.32;;;1.63;;
17201;SDS011;8717;53.588;10.176;2022-08-21T08:08:14;1.98;;;1.15;;
17201;SDS011;8717;53.588;10.176;2022-08-21T08:10:40;4.03;;;1.63;;
17201;SDS011;8717;53.588;10.176;2022-08-21T08:13:09;2.75;;;1.35;;
17201;SDS011;8717;53.588;10.176;2022-08-21T08:15:35;3.30;;;1.38;;
17201;SDS011;8717;53.588;10.176;2022-08-21T08:18:03;3.38;;;1.67;;
17201;SDS011;8717;53.588;10.176;2022-08-21T08:20:31;3.90;;;1.48;;
17201;SDS011;8717;53.588;10.176;2022-08-21T08:22:58;1.80;;;1.30;;
17201;SDS011;8717;53.588;10.176;2022-08-21T08:25:25;4.72;;;1.55;;
17201;SDS011;8717;53.588;10.176;2022-08-21T08:27:52;4.22;;;1.70;;
17201;SDS011;8717;53.588;10.176;2022-08-21T08:30:21;3.05;;;1.63;;
17201;SDS011;8717;53.588;10.176;2022-08-21T08:32:48;3.83;;;1.58;;
17201;SDS011;8717;53.588;10.176;2022-08-21T08:35:15;3.05;;;1.58;;
17201;SDS011;8717;53.588;10.176;2022-08-21T08:37:42;1.80;;;1.48;;
17201;SDS011;8717;53.588;10.176;2022-08-21T08:40:11;3.33;;;1.67;;
17201;SDS011;8717;53.588;10.176;2022-08-21T08:42:40;2.20;;;1.40;;
17201;SDS011;8717;53.588;10.176;2022-08-21T08:45:08;3.05;;;1.45;;
17201;SDS011;8717;53.588;10.176;2022-08-21T08:47:40;3.85;;;1.27;;
17201;SDS011;8717;53.588;10.176;2022-08-21T08:50:11;5.05;;;1.88;;
17201;SDS011;8717;53.588;10.176;2022-08-21T08:52:43;3.33;;;1.60;;
17201;SDS011;8717;53.588;10.176;2022-08-21T08:55:17;3.83;;;1.60;;
17201;SDS011;8717;53.588;10.176;2022-08-21T08:57:47;3.80;;;1.40;;
17201;SDS011;8717;53.588;10.176;2022-08-21T09:00:18;2.90;;;1.42;;
17201;SDS011;8717;53.588;10.176;2022-08-21T09:02:48;3.25;;;1.63;;
17201;SDS011;8717;53.588;10.176;2022-08-21T09:05:20;2.83;;;1.58;;
17201;SDS011;8717;53.588;10.176;2022-08-21T09:07:52;3.85;;;1.90;;
17201;SDS011;8717;53.588;10.176;2022-08-21T09:10:29;3.70;;;1.35;;
17201;SDS011;8717;53.588;10.176;2022-08-21T09:13:05;2.90;;;1.70;;
17201;SDS011;8717;53.588;10.176;2022-08-21T09:15:50;3.08;;;1.63;;
17201;SDS011;8717;53.588;10.176;2022-08-21T09:18:26;4.13;;;1.45;;
17201;SDS011;8717;53.588;10.176;2022-08-21T09:21:07;4.30;;;1.60;;
17201;SDS011;8717;53.588;10.176;2022-08-21T09:23:43;3.13;;;1.65;;
17201;SDS011;8717;53.588;10.176;2022-08-21T09:26:19;5.00;;;1.52;;
17201;SDS011;8717;53.588;10.176;2022-08-21T09:28:51;3.55;;;1.52;;
17201;SDS011;8717;53.588;10.176;2022-08-21T09:31:23;5.28;;;1.60;;
17201;SDS011;8717;53.588;10.176;2022-08-21T09:33:56;4.68;;;1.70;;
17201;SDS011;8717;53.588;10.176;2022-08-21T09:36:25;4.82;;;2.20;;
17201;SDS011;8717;53.588;10.176;2022-08-21T09:38:57;4.85;;;1.80;;
17201;SDS011;8717;53.588;10.176;2022-08-21T09:41:27;4.47;;;1.70;;
17201;SDS011;8717;53.588;10.176;2022-08-21T09:43:56;7.88;;;2.30;;
17201;SDS011;8717;53.588;10.176;2022-08-21T09:46:26;3.65;;;1.75;;
17201;SDS011;8717;53.588;10.176;2022-08-21T09:48:54;3.28;;;1.95;;
17201;SDS011;8717;53.588;10.176;2022-08-21T09:51:23;6.78;;;2.15;;
17201;SDS011;8717;53.588;10.176;2022-08-21T09:53:55;4.82;;;2.33;;
17201;SDS011;8717;53.588;10.176;2022-08-21T09:56:36;3.83;;;1.75;;
17201;SDS011;8717;53.588;10.176;2022-08-21T09:59:37;5.03;;;1.80;;
17201;SDS011;8717;53.588;10.176;2022-08-21T10:02:18;4.47;;;2.20;;
17201;SDS011;8717;53.588;10.176;2022-08-21T10:04:50;4.07;;;1.85;;
17201;SDS011;8717;53.588;10.176;2022-08-21T10:07:20;5.22;;;2.10;;
17201;SDS011;8717;53.588;10.176;2022-08-21T10:09:57;4.47;;;1.77;;
17201;SDS011;8717;53.588;10.176;2022-08-21T10:12:28;5.15;;;2.05;;
17201;SDS011;8717;53.588;10.176;2022-08-21T10:15:05;4.65;;;2.10;;
17201;SDS011;8717;53.588;10.176;2022-08-21T10:17:43;8.13;;;2.70;;
17201;SDS011;8717;53.588;10.176;2022-08-21T10:20:20;6.20;;;2.28;;
17201;SDS011;8717;53.588;10.176;2022-08-21T10:22:53;6.85;;;2.22;;
17201;SDS011;8717;53.588;10.176;2022-08-21T10:25:31;9.00;;;2.53;;
17201;SDS011;8717;53.588;10.176;2022-08-21T10:28:02;7.32;;;2.83;;
17201;SDS011;8717;53.588;10.176;2022-08-21T10:30:38;6.28;;;2.63;;
17201;SDS011;8717;53.588;10.176;2022-08-21T10:33:16;5.47;;;2.15;;
17201;SDS011;8717;53.588;10.176;2022-08-21T10:35:51;6.28;;;2.28;;
17201;SDS011;8717;53.588;10.176;2022-08-21T10:38:44;6.70;;;2.22;;
17201;SDS011;8717;53.588;10.176;2022-08-21T10:41:22;5.45;;;2.00;;
17201;SDS011;8717;53.588;10.176;2022-08-21T10:43:59;6.53;;;2.42;;
17201;SDS011;8717;53.588;10.176;2022-08-21T10:46:38;6.07;;;2.72;;
17201;SDS011;8717;53.588;10.176;2022-08-21T10:49:17;5.47;;;2.20;;
17201;SDS011;8717;53.588;10.176;2022-08-21T10:51:54;4.63;;;2.30;;
17201;SDS011;8717;53.588;10.176;2022-08-21T10:54:31;6.22;;;2.28;;
17201;SDS011;8717;53.588;10.176;2022-08-21T10:57:06;3.33;;;2.15;;
17201;SDS011;8717;53.588;10.176;2022-08-21T10:59:42;4.07;;;2.05;;
17201;SDS011;8717;53.588;10.176;2022-08-21T11:02:15;6.35;;;2.45;;
17201;SDS011;8717;53.588;10.176;2022-08-21T11:04:52;6.80;;;2.90;;
17201;SDS011;8717;53.588;10.176;2022-08-21T11:07:25;6.00;;;2.28;;
17201;SDS011;8717;53.588;10.176;2022-08-21T11:09:57;5.25;;;1.83;;
17201;SDS011;8717;53.588;10.176;2022-08-21T11:12:31;3.83;;;1.98;;
17201;SDS011;8717;53.588;10.176;2022-08-21T11:15:07;5.10;;;2.00;;
17201;SDS011;8717;53.588;10.176;2022-08-21T11:17:47;6.43;;;2.45;;
17201;SDS011;8717;53.588;10.176;2022-08-21T11:20:29;3.80;;;1.90;;
17201;SDS011;8717;53.588;10.176;2022-08-21T11:23:00;3.42;;;1.73;;
17201;SDS011;8717;53.588;10.176;2022-08-21T11:25:33;4.72;;;2.20;;
17201;SDS011;8717;53.588;10.176;2022-08-21T11:28:05;5.55;;;2.00;;
17201;SDS011;8717;53.588;10.176;2022-08-21T11:30:38;4.50;;;1.80;;
17201;SDS011;8717;53.588;10.176;2022-08-21T11:33:31;5.88;;;2.15;;
17201;SDS011;8717;53.588;10.176;2022-08-21T11:36:15;5.43;;;1.98;;
17201;SDS011;8717;53.588;10.176;2022-08-21T11:38:50;3.97;;;1.90;;
17201;SDS011;8717;53.588;10.176;2022-08-21T11:41:25;3.20;;;1.80;;
17201;SDS011;8717;53.588;10.176;2022-08-21T11:43:58;4.57;;;2.00;;
17201;SDS011;8717;53.588;10.176;2022-08-21T11:46:31;4.82;;;2.20;;
17201;SDS011;8717;53.588;10.176;2022-08-21T11:49:13;4.60;;;1.90;;
17201;SDS011;8717;53.588;10.176;2022-08-21T11:51:55;2.25;;;1.50;;
17201;SDS011;8717;53.588;10.176;2022-08-21T11:54:35;3.67;;;1.60;;
17201;SDS011;8717;53.588;10.176;2022-08-21T11:57:05;3.63;;;1.50;;
17201;SDS011;8717;53.588;10.176;2022-08-21T11:59:40;3.03;;;1.58;;
17201;SDS011;8717;53.588;10.176;2022-08-21T12:02:12;3.35;;;1.45;;
17201;SDS011;8717;53.588;10.176;2022-08-21T12:04:45;3.05;;;1.27;;
17201;SDS011;8717;53.588;10.176;2022-08-21T12:07:16;4.50;;;1.50;;
17201;SDS011;8717;53.588;10.176;2022-08-21T12:09:55;2.38;;;1.33;;
17201;SDS011;8717;53.588;10.176;2022-08-21T12:12:24;4.03;;;1.77;;
17201;SDS011;8717;53.588;10.176;2022-08-21T12:15:04;2.63;;;1.70;;
17201;SDS011;8717;53.588;10.176;2022-08-21T12:17:40;2.53;;;1.35;;
17201;SDS011;8717;53.588;10.176;2022-08-21T12:20:21;4.80;;;1.65;;
17201;SDS011;8717;53.588;10.176;2022-08-21T12:22:54;2.97;;;1.77;;
17201;SDS011;8717;53.588;10.176;2022-08-21T12:25:35;4.70;;;1.60;;
17201;SDS011;8717;53.588;10.176;2022-08-21T12:28:06;3.38;;;1.52;;
17201;SDS011;8717;53.588;10.176;2022-08-21T12:30:37;3.67;;;1.60;;
17201;SDS011;8717;53.588;10.176;2022-08-21T12:33:17;3.70;;;1.60;;
17201;SDS011;8717;53.588;10.176;2022-08-21T12:35:47;2.95;;;1.50;;
17201;SDS011;8717;53.588;10.176;2022-08-21T12:38:17;3.00;;;1.60;;
17201;SDS011;8717;53.588;10.176;2022-08-21T12:40:48;4.82;;;1.67;;
17201;SDS011;8717;53.588;10.176;2022-08-21T12:43:20;3.13;;;1.42;;
17201;SDS011;8717;53.588;10.176;2022-08-21T12:45:52;2.55;;;1.42;;
17201;SDS011;8717;53.588;10.176;2022-08-21T12:48:20;4.65;;;1.70;;
17201;SDS011;8717;53.588;10.176;2022-08-21T12:50:50;3.58;;;1.80;;
17201;SDS011;8717;53.588;10.176;2022-08-21T12:53:25;2.67;;;1.48;;
17201;SDS011;8717;53.588;10.176;2022-08-21T12:56:01;1.77;;;1.40;;
17201;SDS011;8717;53.588;10.176;2022-08-21T12:58:34;3.72;;;1.60;;
17201;SDS011;8717;53.588;10.176;2022-08-21T13:01:03;2.08;;;1.33;;
17201;SDS011;8717;53.588;10.176;2022-08-21T13:03:33;2.75;;;1.30;;
17201;SDS011;8717;53.588;10.176;2022-08-21T13:06:02;2.80;;;1.48;;
17201;SDS011;8717;53.588;10.176;2022-08-21T13:08:31;2.30;;;1.20;;
17201;SDS011;8717;53.588;10.176;2022-08-21T13:11:02;2.40;;;1.40;;
17201;SDS011;8717;53.588;10.176;2022-08-21T13:13:31;2.83;;;1.20;;
17201;SDS011;8717;53.588;10.176;2022-08-21T13:15:59;2.65;;;1.23;;
17201;SDS011;8717;53.588;10.176;2022-08-21T13:18:32;2.78;;;1.35;;
17201;SDS011;8717;53.588;10.176;2022-08-21T13:21:03;3.28;;;1.58;;
17201;SDS011;8717;53.588;10.176;2022-08-21T13:23:33;3.78;;;1.40;;
17201;SDS011;8717;53.588;10.176;2022-08-21T13:26:00;2.60;;;1.40;;
17201;SDS011;8717;53.588;10.176;2022-08-21T13:28:32;3.63;;;1.60;;
17201;SDS011;8717;53.588;10.176;2022-08-21T13:31:00;3.63;;;1.50;;
17201;SDS011;8717;53.588;10.176;2022-08-21T13:33:27;2.13;;;1.02;;
17201;SDS011;8717;53.588;10.176;2022-08-21T13:35:58;3.20;;;1.25;;
17201;SDS011;8717;53.588;10.176;2022-08-21T13:38:30;3.10;;;1.33;;
17201;SDS011;8717;53.588;10.176;2022-08-21T13:41:03;4.35;;;1.27;;
17201;SDS011;8717;53.588;10.176;2022-08-21T13:43:35;2.00;;;1.13;;
17201;SDS011;8717;53.588;10.176;2022-08-21T13:46:06;2.78;;;1.50;;
17201;SDS011;8717;53.588;10.176;2022-08-21T13:48:36;3.08;;;1.23;;
17201;SDS011;8717;53.588;10.176;2022-08-21T13:51:03;3.20;;;1.40;;
17201;SDS011;8717;53.588;10.176;2022-08-21T13:53:32;2.55;;;1.00;;
17201;SDS011;8717;53.588;10.176;2022-08-21T13:56:03;1.77;;;1.25;;
17201;SDS011;8717;53.588;10.176;2022-08-21T13:58:32;3.00;;;1.27;;
17201;SDS011;8717;53.588;10.176;2022-08-21T14:01:15;2.05;;;1.17;;
17201;SDS011;8717;53.588;10.176;2022-08-21T14:03:47;3.50;;;1.20;;
17201;SDS011;8717;53.588;10.176;2022-08-21T14:06:17;2.88;;;1.10;;
17201;SDS011;8717;53.588;10.176;2022-08-21T14:08:47;1.50;;;1.10;;
17201;SDS011;8717;53.588;10.176;2022-08-21T14:11:18;2.60;;;1.45;;
17201;SDS011;8717;53.588;10.176;2022-08-21T14:13:47;1.70;;;1.02;;
17201;SDS011;8717;53.588;10.176;2022-08-21T14:16:18;2.88;;;1.10;;
17201;SDS011;8717;53.588;10.176;2022-08-21T14:18:48;2.78;;;1.10;;
17201;SDS011;8717;53.588;10.176;2022-08-21T14:21:28;1.83;;;1.00;;
17201;SDS011;8717;53.588;10.176;2022-08-21T14:24:04;2.53;;;1.00;;
17201;SDS011;8717;53.588;10.176;2022-08-21T14:26:36;2.67;;;1.20;;
17201;SDS011;8717;53.588;10.176;2022-08-21T14:29:09;3.80;;;1.15;;
17201;SDS011;8717;53.588;10.176;2022-08-21T14:31:38;2.50;;;1.10;;
17201;SDS011;8717;53.588;10.176;2022-08-21T14:34:05;1.77;;;1.00;;
17201;SDS011;8717;53.588;10.176;2022-08-21T14:36:32;2.33;;;1.20;;
17201;SDS011;8717;53.588;10.176;2022-08-21T14:38:58;2.25;;;1.02;;
17201;SDS011;8717;53.588;10.176;2022-08-21T14:41:25;1.80;;;1.20;;
17201;SDS011;8717;53.588;10.176;2022-08-21T14:43:55;2.00;;;1.10;;
17201;SDS011;8717;53.588;10.176;2022-08-21T14:46:23;2.72;;;1.20;;
17201;SDS011;8717;53.588;10.176;2022-08-21T14:48:53;2.17;;;1.20;;
17201;SDS011;8717;53.588;10.176;2022-08-21T14:51:20;1.60;;;0.95;;
17201;SDS011;8717;53.588;10.176;2022-08-21T14:53:47;3.17;;;1.33;;
17201;SDS011;8717;53.588;10.176;2022-08-21T14:56:14;2.28;;;1.10;;
17201;SDS011;8717;53.588;10.176;2022-08-21T14:58:42;2.38;;;0.90;;
17201;SDS011;8717;53.588;10.176;2022-08-21T15:01:13;2.58;;;1.13;;
17201;SDS011;8717;53.588;10.176;2022-08-21T15:03:43;1.83;;;1.10;;